Time;durP1;ratioP1;P1;durP2;ratioP2;P2;SDS_P1;SDS_P2;PMS_P1;PMS_P2;Temp;Humidity;BMP_temperature;BMP_pressure;BME280_temperature;BME280_humidity;BME280_pressure;Samples;Min_cycle;Max_cycle;Signal;HPM_P1;HPM_P2
2021/12/16 00:05:29;;;;;;;19.17;7.53;;;;;;;5.77;100.00;-19317.81;5013493;28;20049;-67
2021/12/16 00:08:14;;;;;;;26.10;8.63;;;;;;;5.84;100.00;-19319.66;5024799;28;20025;-67
2021/12/16 00:10:53;;;;;;;27.37;8.63;;;;;;;5.96;100.00;-19322.56;5024953;28;20026;-67
2021/12/16 00:32:45;;;;;;;27.60;9.47;;;;;;;6.40;100.00;-19334.19;5022718;28;20037;-67
2021/12/16 00:35:11;;;;;;;29.03;10.80;;;;;;;6.40;100.00;-19334.19;5027085;28;20026;-67
2021/12/16 00:37:37;;;;;;;28.27;10.50;;;;;;;6.42;100.00;-19334.72;5024134;28;20033;-67
2021/12/16 00:40:06;;;;;;;29.77;9.90;;;;;;;6.44;100.00;-19335.25;5024500;28;20029;-67
2021/12/16 00:50:23;;;;;;;25.40;9.57;;;;;;;6.60;100.00;-19339.22;5026526;28;20039;-67
2021/12/16 00:55:45;;;;;;;24.90;9.07;;;;;;;6.67;100.00;-19341.06;5024634;28;20079;-67
2021/12/16 00:58:11;;;;;;;29.57;10.50;;;;;;;6.67;100.00;-19341.06;5023702;28;20026;-67
2021/12/16 01:00:38;;;;;;;25.80;9.97;;;;;;;6.71;100.00;-19342.25;5024183;28;20147;-67
2021/12/16 01:03:18;;;;;;;25.30;10.10;;;;;;;6.74;100.00;-19343.06;5023302;28;20473;-67
2021/12/16 01:55:24;;;;;;;30.80;12.17;;;;;;;7.20;100.00;-19354.94;4941496;29;20042;-67
2021/12/16 01:57:58;;;;;;;32.40;11.70;;;;;;;7.27;100.00;-19356.66;4941952;29;20473;-67
2021/12/16 02:00:31;;;;;;;25.50;10.00;;;;;;;7.28;100.00;-19356.94;4942781;29;20047;-66
2021/12/16 02:03:05;;;;;;;31.17;11.77;;;;;;;7.37;100.00;-19359.16;4940370;29;20267;-66
2021/12/16 02:10:40;;;;;;;35.90;12.00;;;;;;;7.26;100.00;-19356.41;4943953;28;20082;-66
2021/12/16 02:37:32;;;;;;;33.53;12.10;;;;;;;7.31;100.00;-19357.72;4961899;28;20077;-66
2021/12/16 02:39:59;;;;;;;37.03;12.37;;;;;;;7.31;100.00;-19357.72;4963401;28;20063;-66
2021/12/16 02:42:36;;;;;;;33.90;12.50;;;;;;;7.30;100.00;-19357.47;4962541;28;20033;-66
2021/12/16 02:50:19;;;;;;;33.80;12.60;;;;;;;7.34;100.00;-19358.50;4961456;28;20041;-66
2021/12/16 02:52:45;;;;;;;41.63;12.87;;;;;;;7.37;100.00;-19359.16;4980692;28;20049;-66
2021/12/16 02:55:13;;;;;;;33.97;12.93;;;;;;;7.40;100.00;-19360.09;5003891;28;20426;-66
2021/12/16 02:58:00;;;;;;;34.93;12.60;;;;;;;7.38;100.00;-19359.44;5004007;28;20459;-66
2021/12/16 03:00:27;;;;;;;31.87;11.07;;;;;;;7.46;100.00;-19361.56;4994744;28;20368;-66
2021/12/16 03:02:53;;;;;;;35.97;12.60;;;;;;;7.46;100.00;-19361.56;5004111;28;20025;-66
2021/12/16 03:05:21;;;;;;;34.80;12.63;;;;;;;7.46;100.00;-19361.69;5021021;28;20124;-66
2021/12/16 03:07:49;;;;;;;33.00;12.87;;;;;;;7.52;100.00;-19363.28;5023798;28;20040;-66
2021/12/16 03:13:24;;;;;;;37.40;12.87;;;;;;;7.50;100.00;-19362.75;5023653;28;20098;-66
2021/12/16 03:21:03;;;;;;;38.00;13.30;;;;;;;7.47;100.00;-19361.81;5022658;28;20036;-66
2021/12/16 03:31:42;;;;;;;34.30;12.57;;;;;;;7.53;100.00;-19363.41;5023883;28;20028;-66
2021/12/16 03:39:40;;;;;;;34.13;12.73;;;;;;;7.58;100.00;-19364.72;5019256;28;20052;-66
2021/12/16 03:42:07;;;;;;;37.13;12.80;;;;;;;7.63;100.00;-19366.19;5023126;28;20507;-66
2021/12/16 03:44:49;;;;;;;39.33;13.07;;;;;;;7.71;100.00;-19368.03;5026688;28;20025;-66
2021/12/16 03:47:17;;;;;;;37.75;13.73;;;;;;;7.67;100.00;-19367.09;5021583;28;20025;-66
2021/12/16 03:49:43;;;;;;;35.80;13.03;;;;;;;7.76;100.00;-19369.34;5027833;28;20056;-66
2021/12/16 03:52:09;;;;;;;32.13;12.93;;;;;;;7.77;100.00;-19369.75;5023283;28;20049;-66
2021/12/16 03:54:49;;;;;;;35.80;13.73;;;;;;;7.76;100.00;-19369.34;5023913;28;20772;-66
2021/12/16 03:57:17;;;;;;;32.40;13.10;;;;;;;7.74;100.00;-19368.81;5023335;28;20086;-66
2021/12/16 03:59:42;;;;;;;36.20;13.30;;;;;;;7.74;100.00;-19368.81;5022907;28;20703;-67
2021/12/16 04:02:16;;;;;;;36.10;13.13;;;;;;;7.79;100.00;-19370.13;5020399;28;20021;-67
2021/12/16 04:04:43;;;;;;;36.70;13.90;;;;;;;7.79;100.00;-19370.13;5020752;28;20124;-67
2021/12/16 04:07:09;;;;;;;31.93;12.80;;;;;;;7.76;100.00;-19369.34;5020896;28;20201;-67
2021/12/16 04:09:35;;;;;;;35.40;13.40;;;;;;;7.77;100.00;-19369.59;5020643;28;20029;-67
2021/12/16 04:12:11;;;;;;;38.43;14.10;;;;;;;7.82;100.00;-19370.94;5020730;28;20029;-67
2021/12/16 04:14:39;;;;;;;38.57;13.37;;;;;;;7.81;100.00;-19370.78;5020882;28;20036;-67
2021/12/16 04:17:06;;;;;;;36.03;13.53;;;;;;;7.85;100.00;-19371.72;5020165;28;20029;-67
2021/12/16 04:19:33;;;;;;;51.37;13.70;;;;;;;7.80;100.00;-19370.41;5020734;28;20025;-67
2021/12/16 04:22:10;;;;;;;42.03;13.93;;;;;;;7.85;100.00;-19371.72;5020335;28;20121;-67
2021/12/16 04:24:38;;;;;;;45.00;15.00;;;;;;;7.82;100.00;-19370.94;5009130;28;20112;-67
2021/12/16 04:27:05;;;;;;;38.97;13.43;;;;;;;7.83;100.00;-19371.19;5025335;28;20040;-67
2021/12/16 04:29:30;;;;;;;39.63;13.80;;;;;;;7.92;100.00;-19373.56;5026468;28;20043;-67
2021/12/16 04:31:57;;;;;;;48.63;15.33;;;;;;;7.92;100.00;-19373.56;5020462;28;20643;-67
2021/12/16 04:34:23;;;;;;;43.07;14.23;;;;;;;7.87;100.00;-19372.38;5024595;28;20109;-67
2021/12/16 04:36:48;;;;;;;37.23;14.20;;;;;;;7.84;100.00;-19371.59;5023725;28;20025;-67
2021/12/16 04:39:19;;;;;;;44.50;15.40;;;;;;;7.84;100.00;-19371.44;5024327;28;20021;-67
2021/12/16 04:41:45;;;;;;;35.57;13.37;;;;;;;7.90;100.00;-19373.03;5023342;28;20519;-67
2021/12/16 04:44:13;;;;;;;37.10;14.07;;;;;;;7.86;100.00;-19371.97;5024713;28;20080;-67
2021/12/16 04:46:39;;;;;;;44.13;14.83;;;;;;;7.89;100.00;-19372.91;5024216;28;20515;-67
2021/12/16 04:49:06;;;;;;;31.47;12.53;;;;;;;7.88;100.00;-19372.50;5023950;28;20075;-67
2021/12/16 04:51:35;;;;;;;34.70;14.37;;;;;;;7.89;100.00;-19372.78;5028015;28;20502;-67
2021/12/16 04:54:00;;;;;;;32.17;13.17;;;;;;;7.85;100.00;-19371.72;5023941;28;20043;-67
2021/12/16 04:56:26;;;;;;;40.60;14.50;;;;;;;7.90;100.00;-19373.03;5024007;28;20029;-67
2021/12/16 04:58:54;;;;;;;39.23;13.80;;;;;;;7.87;100.00;-19372.25;5023282;28;20029;-67
2021/12/16 05:01:20;;;;;;;36.97;14.17;;;;;;;7.92;100.00;-19373.56;5022457;28;20033;-67
2021/12/16 05:03:46;;;;;;;36.60;12.87;;;;;;;7.90;100.00;-19373.03;5023248;28;20137;-67
2021/12/16 05:06:11;;;;;;;38.07;14.60;;;;;;;7.91;100.00;-19373.44;5023720;28;20087;-67
2021/12/16 05:08:38;;;;;;;39.07;13.90;;;;;;;7.92;100.00;-19373.56;5023442;28;20037;-67
2021/12/16 05:11:07;;;;;;;40.23;14.10;;;;;;;7.93;100.00;-19373.97;5023137;28;20617;-67
2021/12/16 05:13:34;;;;;;;37.20;14.27;;;;;;;7.89;100.00;-19372.91;5023499;28;20402;-67
2021/12/16 05:16:04;;;;;;;38.20;14.10;;;;;;;7.92;100.00;-19373.69;5023740;28;20033;-67
2021/12/16 05:18:34;;;;;;;36.53;13.07;;;;;;;7.92;100.00;-19373.69;5023539;28;20025;-67
2021/12/16 05:21:08;;;;;;;36.83;13.27;;;;;;;7.89;100.00;-19372.78;5022875;28;20087;-67
2021/12/16 05:26:21;;;;;;;35.60;13.37;;;;;;;7.91;100.00;-19373.44;5012811;28;20035;-67
2021/12/16 05:28:53;;;;;;;39.93;14.23;;;;;;;7.92;100.00;-19373.56;5020656;28;20033;-67
2021/12/16 05:31:21;;;;;;;37.97;14.10;;;;;;;7.91;100.00;-19373.44;5023046;28;20049;-67
2021/12/16 05:33:48;;;;;;;41.93;13.83;;;;;;;7.91;100.00;-19373.31;5022677;28;20108;-67
2021/12/16 05:36:13;;;;;;;35.80;14.47;;;;;;;7.95;100.00;-19374.34;5023707;28;20052;-67
2021/12/16 05:38:39;;;;;;;38.13;14.77;;;;;;;7.93;100.00;-19373.97;5022864;28;20048;-67
2021/12/16 05:41:07;;;;;;;36.50;14.43;;;;;;;7.91;100.00;-19373.31;5022807;28;20021;-67
2021/12/16 05:43:33;;;;;;;45.97;15.77;;;;;;;7.90;100.00;-19373.03;5024864;28;20025;-67
2021/12/16 05:45:59;;;;;;;42.53;14.97;;;;;;;7.93;100.00;-19373.81;5022775;28;20156;-67
2021/12/16 05:48:27;;;;;;;41.23;15.67;;;;;;;7.96;100.00;-19374.50;5023258;28;20026;-67
2021/12/16 05:50:56;;;;;;;45.97;14.30;;;;;;;7.98;100.00;-19375.16;5027147;28;20040;-67
2021/12/16 05:53:22;;;;;;;50.47;15.97;;;;;;;7.97;100.00;-19374.75;5022484;28;20033;-67
2021/12/16 05:55:49;;;;;;;48.57;15.77;;;;;;;7.94;100.00;-19374.22;5023496;28;20095;-67
2021/12/16 05:58:18;;;;;;;44.33;14.83;;;;;;;7.93;100.00;-19373.81;5022933;28;20074;-67
2021/12/16 06:00:48;;;;;;;46.17;15.33;;;;;;;7.93;100.00;-19373.97;5022961;28;20052;-67
2021/12/16 06:03:13;;;;;;;46.10;16.13;;;;;;;7.93;100.00;-19373.81;5021736;28;20102;-67
2021/12/16 06:05:39;;;;;;;44.57;16.23;;;;;;;7.91;100.00;-19373.31;5022572;28;20108;-67
2021/12/16 06:08:05;;;;;;;46.60;15.63;;;;;;;7.96;100.00;-19374.50;5022738;28;20029;-67
2021/12/16 06:13:10;;;;;;;41.00;15.77;;;;;;;7.89;100.00;-19372.78;5022110;28;20658;-67
2021/12/16 06:26:50;;;;;;;45.67;14.73;;;;;;;7.97;100.00;-19374.88;5021111;28;20043;-67
2021/12/16 06:29:15;;;;;;;44.33;15.17;;;;;;;7.96;100.00;-19374.50;5021131;28;20454;-67
2021/12/16 06:31:41;;;;;;;44.53;15.60;;;;;;;7.96;100.00;-19374.63;5021633;28;20036;-67
2021/12/16 06:34:07;;;;;;;44.77;14.73;;;;;;;7.99;100.00;-19375.28;5021654;28;20029;-67
2021/12/16 06:36:32;;;;;;;47.30;16.90;;;;;;;7.99;100.00;-19375.41;5020913;28;20044;-67
2021/12/16 06:38:58;;;;;;;37.17;14.60;;;;;;;7.99;100.00;-19375.41;5021724;28;20018;-67
2021/12/16 06:41:23;;;;;;;40.77;14.73;;;;;;;8.00;100.00;-19375.69;5021182;28;20037;-67
2021/12/16 06:43:52;;;;;;;40.30;15.10;;;;;;;7.98;100.00;-19375.00;5021003;28;20077;-67
2021/12/16 06:46:20;;;;;;;43.17;16.17;;;;;;;7.97;100.00;-19374.75;5020383;28;20026;-67
2021/12/16 06:48:54;;;;;;;46.67;15.67;;;;;;;7.93;100.00;-19373.81;5021863;28;20033;-67
2021/12/16 06:51:32;;;;;;;45.97;14.67;;;;;;;7.97;100.00;-19374.75;5032336;28;20045;-67
2021/12/16 06:54:05;;;;;;;35.63;14.80;;;;;;;7.95;100.00;-19374.34;5020910;28;20041;-67
2021/12/16 06:56:38;;;;;;;45.33;15.80;;;;;;;7.95;100.00;-19374.34;5016000;28;20032;-67
2021/12/16 06:59:11;;;;;;;39.03;14.33;;;;;;;7.95;100.00;-19374.34;5021828;28;20021;-67
2021/12/16 07:01:40;;;;;;;44.90;15.73;;;;;;;7.98;100.00;-19375.00;5021549;28;20033;-67
2021/12/16 07:04:15;;;;;;;45.73;15.00;;;;;;;7.96;100.00;-19374.63;5021340;28;20700;-67
2021/12/16 07:06:41;;;;;;;39.47;14.93;;;;;;;7.99;100.00;-19375.28;5021242;28;20051;-67
2021/12/16 07:09:13;;;;;;;43.63;15.10;;;;;;;7.96;100.00;-19374.63;5020856;28;20094;-67
2021/12/16 07:11:44;;;;;;;37.97;14.80;;;;;;;7.96;100.00;-19374.50;5021504;28;20048;-67
2021/12/16 07:14:14;;;;;;;44.63;16.53;;;;;;;7.98;100.00;-19375.16;5021722;28;20032;-67
2021/12/16 07:16:42;;;;;;;42.50;14.27;;;;;;;7.94;100.00;-19374.09;5021407;28;20029;-67
2021/12/16 07:19:07;;;;;;;44.00;15.40;;;;;;;7.96;100.00;-19374.63;5021516;28;20026;-67
2021/12/16 07:21:37;;;;;;;43.67;15.70;;;;;;;7.94;100.00;-19374.09;5021243;28;20032;-67
2021/12/16 07:24:08;;;;;;;40.10;14.67;;;;;;;7.94;100.00;-19374.22;5021380;28;20071;-67
2021/12/16 07:26:34;;;;;;;47.00;13.77;;;;;;;7.96;100.00;-19374.63;5020796;28;20026;-67
2021/12/16 07:29:00;;;;;;;45.93;15.63;;;;;;;7.92;100.00;-19373.56;5021387;28;20025;-67
2021/12/16 07:31:27;;;;;;;43.53;15.07;;;;;;;7.92;100.00;-19373.56;5021560;28;20051;-67
2021/12/16 07:33:53;;;;;;;40.50;14.33;;;;;;;7.94;100.00;-19374.09;5021145;28;20025;-67
2021/12/16 07:36:19;;;;;;;47.70;15.10;;;;;;;7.92;100.00;-19373.69;5021330;28;20244;-67
2021/12/16 07:38:45;;;;;;;40.07;14.90;;;;;;;7.91;100.00;-19373.31;5021205;28;20033;-67
2021/12/16 07:41:11;;;;;;;46.50;15.33;;;;;;;7.91;100.00;-19373.31;5021476;28;20022;-67
2021/12/16 07:43:53;;;;;;;42.10;15.30;;;;;;;7.92;100.00;-19373.56;5020926;28;20029;-67
2021/12/16 07:46:18;;;;;;;44.40;15.57;;;;;;;7.94;100.00;-19374.09;5020935;28;20036;-67
2021/12/16 07:48:44;;;;;;;47.50;15.13;;;;;;;7.95;100.00;-19374.34;5021154;28;20029;-67
2021/12/16 07:51:10;;;;;;;43.03;15.67;;;;;;;7.94;100.00;-19374.09;5025615;28;20029;-67
2021/12/16 07:53:36;;;;;;;54.10;15.20;;;;;;;7.93;100.00;-19373.81;5021434;28;20771;-67
2021/12/16 07:56:02;;;;;;;51.00;14.77;;;;;;;7.95;100.00;-19374.34;5021110;28;20113;-67
2021/12/16 07:58:28;;;;;;;48.20;15.77;;;;;;;7.93;100.00;-19373.97;5020934;28;20079;-67
2021/12/16 08:00:53;;;;;;;42.53;15.43;;;;;;;7.92;100.00;-19373.56;5021674;28;20021;-67
2021/12/16 08:03:20;;;;;;;55.00;16.27;;;;;;;7.93;100.00;-19373.97;5020494;28;20018;-67
2021/12/16 08:05:53;;;;;;;43.97;15.87;;;;;;;7.92;100.00;-19373.56;5008040;28;20459;-67
2021/12/16 08:08:18;;;;;;;42.80;14.67;;;;;;;7.93;100.00;-19373.81;5022855;28;20112;-67
2021/12/16 08:10:44;;;;;;;39.50;14.43;;;;;;;7.95;100.00;-19374.34;5025484;28;20128;-67
2021/12/16 08:13:09;;;;;;;46.83;14.83;;;;;;;7.94;100.00;-19374.09;5025035;28;20029;-67
2021/12/16 08:15:35;;;;;;;41.17;13.47;;;;;;;7.97;100.00;-19374.88;5025171;28;20101;-67
2021/12/16 08:18:01;;;;;;;43.70;15.70;;;;;;;7.98;100.00;-19375.16;5024649;28;20039;-67
2021/12/16 08:20:27;;;;;;;54.30;14.70;;;;;;;8.00;100.00;-19375.53;5025064;28;20470;-67
2021/12/16 08:22:56;;;;;;;42.97;14.10;;;;;;;8.03;100.00;-19376.34;5024179;28;20040;-67
2021/12/16 08:25:23;;;;;;;46.70;15.40;;;;;;;8.05;100.00;-19377.00;5027357;28;20021;-67
2021/12/16 08:27:50;;;;;;;44.60;15.07;;;;;;;8.06;100.00;-19377.25;5024237;28;20132;-67
2021/12/16 08:30:18;;;;;;;42.60;14.80;;;;;;;8.06;100.00;-19377.25;5027629;28;20025;-67
2021/12/16 08:32:44;;;;;;;38.70;14.07;;;;;;;8.09;100.00;-19378.06;5024559;28;20537;-67
2021/12/16 08:35:11;;;;;;;46.00;15.87;;;;;;;8.14;100.00;-19379.25;5024933;28;20093;-67
2021/12/16 08:37:37;;;;;;;43.60;14.70;;;;;;;8.17;100.00;-19380.03;5023984;28;20109;-67
2021/12/16 08:40:06;;;;;;;40.80;14.30;;;;;;;8.21;100.00;-19381.22;5024690;28;20108;-67
2021/12/16 08:42:31;;;;;;;46.90;14.63;;;;;;;8.27;100.00;-19382.66;5024499;28;20025;-67
2021/12/16 08:44:57;;;;;;;35.73;13.57;;;;;;;8.28;100.00;-19382.94;5024816;28;20353;-67
2021/12/16 08:47:23;;;;;;;40.73;13.80;;;;;;;8.31;100.00;-19383.72;5024241;28;20470;-67
2021/12/16 08:49:49;;;;;;;39.83;14.33;;;;;;;8.37;100.00;-19385.19;5029772;28;20016;-67
2021/12/16 08:52:19;;;;;;;42.77;13.80;;;;;;;8.36;100.00;-19384.91;5029084;28;20052;-67
2021/12/16 08:54:46;;;;;;;48.40;15.07;;;;;;;8.30;100.00;-19383.47;5024798;28;20022;-67
2021/12/16 08:57:12;;;;;;;36.53;13.70;;;;;;;8.29;100.00;-19383.06;5006409;28;20507;-67
2021/12/16 08:59:38;;;;;;;41.70;13.10;;;;;;;8.30;100.00;-19383.47;5023851;28;20104;-67
2021/12/16 09:02:07;;;;;;;43.80;14.27;;;;;;;8.30;100.00;-19383.47;5020567;28;20128;-67
2021/12/16 09:04:34;;;;;;;45.00;14.30;;;;;;;8.32;100.00;-19384.00;5023906;28;20058;-67
2021/12/16 09:07:03;;;;;;;44.40;13.80;;;;;;;8.31;100.00;-19383.59;5023551;28;20029;-67
2021/12/16 09:09:34;;;;;;;41.70;12.73;;;;;;;8.28;100.00;-19382.81;5023425;28;20025;-67
2021/12/16 09:12:14;;;;;;;39.00;13.00;;;;;;;8.30;100.00;-19383.31;5024133;28;20053;-67
2021/12/16 09:14:42;;;;;;;46.23;14.27;;;;;;;8.28;100.00;-19382.81;5024262;28;20087;-67
2021/12/16 09:17:11;;;;;;;36.60;13.37;;;;;;;8.29;100.00;-19383.06;5023867;28;20040;-67
2021/12/16 09:19:43;;;;;;;32.63;12.63;;;;;;;8.23;100.00;-19381.75;5022566;28;20078;-67
2021/12/16 09:22:10;;;;;;;36.00;13.50;;;;;;;8.19;100.00;-19380.69;5023644;28;20029;-67
2021/12/16 09:24:36;;;;;;;43.47;16.60;;;;;;;8.18;100.00;-19380.44;5023794;28;20105;-67
2021/12/16 09:27:01;;;;;;;37.00;13.43;;;;;;;8.17;100.00;-19380.16;5023504;28;20112;-67
2021/12/16 09:29:27;;;;;;;35.63;12.00;;;;;;;8.16;100.00;-19379.91;5023395;28;20124;-67
2021/12/16 09:31:52;;;;;;;44.53;13.33;;;;;;;8.15;100.00;-19379.50;5023697;28;20025;-67
2021/12/16 09:34:18;;;;;;;35.47;11.43;;;;;;;8.15;100.00;-19379.63;5023619;28;20052;-67
2021/12/16 09:36:45;;;;;;;40.20;13.70;;;;;;;8.14;100.00;-19379.25;5023502;28;20104;-67
2021/12/16 09:39:16;;;;;;;42.50;14.30;;;;;;;8.17;100.00;-19380.16;5023337;28;20049;-67
2021/12/16 09:41:46;;;;;;;45.95;14.68;;;;;;;8.15;100.00;-19379.50;5023105;28;20037;-67
2021/12/16 09:44:12;;;;;;;37.50;13.00;;;;;;;8.14;100.00;-19379.38;5023614;28;20031;-67
2021/12/16 09:46:39;;;;;;;43.30;13.47;;;;;;;8.18;100.00;-19380.44;5023186;28;20025;-67
2021/12/16 09:49:06;;;;;;;46.67;14.00;;;;;;;8.20;100.00;-19380.94;5023532;28;20030;-67
2021/12/16 09:51:35;;;;;;;46.63;13.40;;;;;;;8.20;100.00;-19380.94;5033993;28;20025;-67
2021/12/16 09:54:06;;;;;;;42.90;12.73;;;;;;;8.20;100.00;-19380.94;5023456;28;20525;-67
2021/12/16 09:56:33;;;;;;;40.77;14.03;;;;;;;8.25;100.00;-19382.00;5022667;28;20029;-67
2021/12/16 09:59:01;;;;;;;38.77;12.73;;;;;;;8.25;100.00;-19382.00;5025232;28;20670;-67
2021/12/16 10:01:27;;;;;;;42.87;13.73;;;;;;;8.25;100.00;-19382.00;5022713;28;20022;-67
2021/12/16 10:03:57;;;;;;;46.13;14.40;;;;;;;8.25;100.00;-19382.00;5022925;28;20049;-67
2021/12/16 10:06:22;;;;;;;35.50;12.60;;;;;;;8.22;100.00;-19381.47;5022903;28;20060;-67
2021/12/16 10:08:48;;;;;;;43.40;13.57;;;;;;;8.26;100.00;-19382.28;5022529;28;20053;-67
2021/12/16 10:11:16;;;;;;;40.83;14.47;;;;;;;8.27;100.00;-19382.53;5022441;28;20032;-67
2021/12/16 10:19:09;;;;;;;41.87;14.03;;;;;;;8.42;100.00;-19386.50;5021725;28;20040;-67
2021/12/16 10:21:35;;;;;;;42.43;14.30;;;;;;;8.45;100.00;-19387.28;5022233;28;20021;-67
2021/12/16 10:24:00;;;;;;;44.23;13.50;;;;;;;8.49;100.00;-19388.47;5025380;28;20044;-68
2021/12/16 10:26:27;;;;;;;43.43;13.93;;;;;;;8.52;100.00;-19389.13;5022168;28;20124;-68
2021/12/16 10:28:57;;;;;;;42.13;14.80;;;;;;;8.39;100.00;-19385.72;5022676;28;20022;-67
2021/12/16 10:31:41;;;;;;;43.97;14.03;;;;;;;8.36;100.00;-19384.91;5024257;28;20112;-67
2021/12/16 10:34:10;;;;;;;41.90;13.60;;;;;;;8.30;100.00;-19383.31;5022683;28;20056;-67
2021/12/16 10:36:45;;;;;;;44.50;14.00;;;;;;;8.34;100.00;-19384.53;5022381;28;20047;-67
2021/12/16 10:39:29;;;;;;;39.33;13.03;;;;;;;8.35;100.00;-19384.78;5022493;28;20108;-68
2021/12/16 10:41:58;;;;;;;40.00;13.10;;;;;;;8.37;100.00;-19385.31;5022286;28;20028;-68
2021/12/16 10:44:34;;;;;;;48.93;13.43;;;;;;;8.34;100.00;-19384.38;5022182;28;20029;-68
2021/12/16 10:47:06;;;;;;;44.10;13.83;;;;;;;8.46;100.00;-19387.56;5022325;28;20103;-68
2021/12/16 10:49:52;;;;;;;50.60;13.15;;;;;;;8.58;100.00;-19390.59;5025607;28;20031;-68
2021/12/16 10:52:26;;;;;;;39.90;13.00;;;;;;;8.52;100.00;-19389.13;5025571;28;20033;-68
2021/12/16 10:54:55;;;;;;;56.33;14.40;;;;;;;8.69;100.00;-19393.63;5021810;28;20627;-68
2021/12/16 10:57:26;;;;;;;43.53;12.57;;;;;;;8.63;100.00;-19392.03;5021422;28;20029;-68
2021/12/16 10:59:53;;;;;;;37.42;11.80;;;;;;;8.54;100.00;-19389.66;5013374;28;20027;-68
2021/12/16 11:02:21;;;;;;;39.57;12.27;;;;;;;8.46;100.00;-19387.56;5021330;28;20036;-68
2021/12/16 11:04:53;;;;;;;37.40;12.97;;;;;;;8.58;100.00;-19390.72;5021527;28;20080;-68
2021/12/16 11:07:32;;;;;;;40.57;12.57;;;;;;;8.68;100.00;-19393.22;5021358;28;20052;-68
2021/12/16 11:09:57;;;;;;;41.00;13.57;;;;;;;8.71;100.00;-19394.16;5021511;28;20037;-68
2021/12/16 11:12:26;;;;;;;44.67;12.93;;;;;;;8.69;100.00;-19393.63;5021132;28;20091;-68
2021/12/16 11:14:53;;;;;;;39.47;12.27;;;;;;;8.70;100.00;-19393.75;5021229;28;20037;-68
2021/12/16 11:17:21;;;;;;;40.50;12.10;;;;;;;8.72;100.00;-19394.41;5021723;28;20752;-68
2021/12/16 11:20:05;;;;;;;35.87;11.63;;;;;;;8.70;100.00;-19393.88;5021650;28;20037;-68
2021/12/16 11:22:35;;;;;;;34.57;11.43;;;;;;;8.89;100.00;-19398.63;5021636;28;20080;-68
2021/12/16 11:25:24;;;;;;;34.57;11.60;;;;;;;8.85;100.00;-19397.56;5021242;28;20431;-68
2021/12/16 11:28:07;;;;;;;34.00;11.57;;;;;;;8.86;100.00;-19397.84;5021517;28;20432;-68
2021/12/16 11:31:01;;;;;;;39.37;13.03;;;;;;;9.06;100.00;-19403.13;5010513;28;20044;-68
2021/12/16 11:33:32;;;;;;;35.07;11.60;;;;;;;9.00;100.00;-19401.53;5012516;28;20053;-68
2021/12/16 11:36:06;;;;;;;36.78;12.07;;;;;;;8.89;100.00;-19398.63;5021731;28;20033;-68
2021/12/16 11:38:47;;;;;;;37.10;11.27;;;;;;;9.08;100.00;-19403.63;5021568;28;20627;-68
2021/12/16 11:41:32;;;;;;;35.93;11.67;;;;;;;9.07;100.00;-19403.38;5021664;28;20426;-68
2021/12/16 11:44:01;;;;;;;30.90;10.50;;;;;;;8.98;100.00;-19401.00;5013537;28;20029;-68
2021/12/16 11:46:37;;;;;;;35.33;11.53;;;;;;;8.99;100.00;-19401.41;5020870;28;20112;-68
2021/12/16 11:49:21;;;;;;;36.33;10.47;;;;;;;8.93;100.00;-19399.69;5020965;28;20553;-68
2021/12/16 11:51:56;;;;;;;28.57;10.60;;;;;;;9.02;100.00;-19402.19;5011051;28;20035;-68
2021/12/16 11:54:26;;;;;;;31.57;10.80;;;;;;;8.97;100.00;-19400.88;5021116;28;20065;-68
2021/12/16 11:57:01;;;;;;;33.37;10.23;;;;;;;9.02;100.00;-19402.06;5020944;28;20029;-68
2021/12/16 11:59:37;;;;;;;31.70;11.10;;;;;;;8.97;100.00;-19400.75;5009396;28;20478;-68
2021/12/16 12:02:04;;;;;;;32.83;11.47;;;;;;;8.94;100.00;-19399.94;5021255;28;20690;-68
2021/12/16 12:04:35;;;;;;;30.57;10.73;;;;;;;9.02;100.00;-19402.06;5021261;28;20116;-68
2021/12/16 12:07:15;;;;;;;35.47;10.93;;;;;;;9.00;100.00;-19401.66;5021116;28;20034;-68
2021/12/16 12:09:50;;;;;;;30.67;10.47;;;;;;;8.99;100.00;-19401.28;5021149;28;20063;-68
2021/12/16 12:12:36;;;;;;;33.33;10.70;;;;;;;9.08;100.00;-19403.78;5020907;28;20061;-68
2021/12/16 12:15:05;;;;;;;27.57;10.40;;;;;;;9.15;100.00;-19405.47;5020371;28;20040;-68
2021/12/16 12:17:52;;;;;;;38.17;11.47;;;;;;;9.13;100.00;-19404.97;5020842;28;20030;-68
2021/12/16 12:20:19;;;;;;;32.20;11.27;;;;;;;9.15;100.00;-19405.47;5021173;28;20049;-68
2021/12/16 12:22:50;;;;;;;29.00;10.03;;;;;;;9.17;100.00;-19406.00;5020999;28;20033;-68
2021/12/16 12:25:16;;;;;;;29.30;10.40;;;;;;;9.15;100.00;-19405.47;5023906;28;20669;-68
2021/12/16 12:27:41;;;;;;;34.10;10.53;;;;;;;9.09;100.00;-19404.03;5027104;28;20087;-68
2021/12/16 12:30:07;;;;;;;31.07;9.87;;;;;;;9.05;100.00;-19402.84;5020965;28;20034;-68
2021/12/16 12:32:38;;;;;;;26.93;10.53;;;;;;;8.96;100.00;-19400.59;5020563;28;20063;-67
2021/12/16 12:35:17;;;;;;;31.43;10.33;;;;;;;8.98;100.00;-19401.13;5007987;28;20041;-68
2021/12/16 12:37:48;;;;;;;32.50;10.07;;;;;;;9.02;100.00;-19402.06;5020616;28;20112;-68
2021/12/16 12:40:36;;;;;;;27.67;9.27;;;;;;;9.02;100.00;-19402.06;5021117;28;20035;-68
2021/12/16 12:43:04;;;;;;;31.13;10.23;;;;;;;9.15;100.00;-19405.47;5020785;28;20049;-68
2021/12/16 12:45:34;;;;;;;31.00;9.53;;;;;;;9.13;100.00;-19404.97;5020718;28;20033;-68
2021/12/16 12:48:02;;;;;;;24.73;9.07;;;;;;;9.04;100.00;-19402.59;5020425;28;20064;-67
2021/12/16 12:50:32;;;;;;;36.67;9.00;;;;;;;9.11;100.00;-19404.44;5031431;28;20028;-67
2021/12/16 12:53:11;;;;;;;27.53;10.50;;;;;;;9.11;100.00;-19404.44;5020544;28;20034;-68
2021/12/16 12:55:36;;;;;;;28.73;9.73;;;;;;;9.12;100.00;-19404.56;5024196;28;20029;-68
2021/12/16 12:58:08;;;;;;;30.77;9.77;;;;;;;9.22;100.00;-19407.34;5023537;28;20036;-68
2021/12/16 13:00:38;;;;;;;29.38;10.40;;;;;;;9.25;100.00;-19408.13;5024010;28;20104;-68
2021/12/16 13:03:10;;;;;;;31.70;10.60;;;;;;;9.30;100.00;-19409.31;5023796;28;20037;-68
2021/12/16 13:05:35;;;;;;;33.65;11.95;;;;;;;9.22;100.00;-19407.19;5023941;28;20049;-68
2021/12/16 13:08:05;;;;;;;38.77;12.20;;;;;;;9.26;100.00;-19408.38;5023723;28;20040;-68
2021/12/16 13:10:33;;;;;;;37.57;12.00;;;;;;;9.27;100.00;-19408.66;5023918;28;20071;-68
2021/12/16 13:15:54;;;;;;;37.77;12.60;;;;;;;9.23;100.00;-19407.47;5019422;28;20113;-68
2021/12/16 13:27:09;;;;;;;35.97;11.80;;;;;;;9.24;100.00;-19407.72;5023141;28;20114;-68
2021/12/16 13:32:11;;;;;;;36.33;11.97;;;;;;;9.13;100.00;-19404.97;5023543;28;20076;-68
2021/12/16 13:34:48;;;;;;;33.30;10.87;;;;;;;9.10;100.00;-19404.31;5023539;28;20044;-68
2021/12/16 13:37:22;;;;;;;32.30;11.47;;;;;;;9.08;100.00;-19403.63;5023163;28;20079;-67
2021/12/16 13:39:54;;;;;;;36.20;10.87;;;;;;;9.04;100.00;-19402.59;5023553;28;20025;-68
2021/12/16 13:42:20;;;;;;;31.75;10.73;;;;;;;9.01;100.00;-19401.94;5023516;28;20711;-68
2021/12/16 13:44:59;;;;;;;37.23;11.67;;;;;;;8.98;100.00;-19401.13;5023501;28;20061;-67
2021/12/16 13:47:46;;;;;;;36.30;12.70;;;;;;;9.03;100.00;-19402.31;5023110;28;20032;-67
2021/12/16 14:07:57;;;;;;;37.00;11.97;;;;;;;9.09;100.00;-19403.91;5022754;28;20509;-67
2021/12/16 14:10:55;;;;;;;46.40;12.60;;;;;;;9.10;100.00;-19404.16;5022599;28;20037;-67
2021/12/16 14:47:05;;;;;;;51.97;13.83;;;;;;;8.87;100.00;-19398.25;4944567;28;20050;-67
2021/12/16 14:49:34;;;;;;;41.97;13.17;;;;;;;8.88;100.00;-19398.38;4944889;28;20117;-67
2021/12/16 14:52:00;;;;;;;42.97;13.67;;;;;;;8.89;100.00;-19398.63;4953301;28;20046;-67
2021/12/16 14:54:26;;;;;;;47.97;12.67;;;;;;;8.87;100.00;-19398.09;4941938;28;20031;-67
2021/12/16 14:57:00;;;;;;;45.27;13.33;;;;;;;8.87;100.00;-19398.09;4949028;28;20034;-67
2021/12/16 14:59:28;;;;;;;49.93;14.00;;;;;;;8.85;100.00;-19397.72;4996645;28;20048;-67
2021/12/16 15:01:57;;;;;;;37.50;12.37;;;;;;;8.88;100.00;-19398.38;5021106;28;20033;-67
2021/12/16 15:04:25;;;;;;;51.23;14.10;;;;;;;8.86;100.00;-19397.84;5021685;28;20490;-67
2021/12/16 15:07:00;;;;;;;52.73;13.53;;;;;;;8.85;100.00;-19397.72;5021479;28;20113;-67
2021/12/16 15:09:29;;;;;;;49.33;15.30;;;;;;;8.87;100.00;-19398.09;5021552;28;20067;-67